createdAt,value
2023-03-16T00:02:13.349Z,2.53
2023-03-16T00:04:40.178Z,2.50
2023-03-16T00:07:09.057Z,2.58
2023-03-16T00:09:36.645Z,2.58
2023-03-16T00:12:03.710Z,2.62
2023-03-16T00:14:31.632Z,2.64
2023-03-16T00:16:58.435Z,2.58
2023-03-16T00:19:24.944Z,2.56
2023-03-16T00:21:51.739Z,2.50
2023-03-16T00:24:19.320Z,2.46
2023-03-16T00:26:46.872Z,2.49
2023-03-16T00:29:13.573Z,2.54
2023-03-16T00:31:44.847Z,2.51
2023-03-16T00:34:12.520Z,2.54
2023-03-16T00:36:39.324Z,2.53
2023-03-16T00:39:06.772Z,2.49
2023-03-16T00:41:37.811Z,2.53
2023-03-16T00:44:05.450Z,2.58
2023-03-16T00:46:31.960Z,2.62
2023-03-16T00:48:58.428Z,2.65
2023-03-16T00:51:24.788Z,2.70
2023-03-16T00:53:51.230Z,2.71
2023-03-16T00:56:17.896Z,2.73
2023-03-16T01:00:36.251Z,2.78
2023-03-16T01:03:02.655Z,2.77
2023-03-16T01:05:29.056Z,2.80
2023-03-16T01:07:55.677Z,2.83
2023-03-16T01:10:22.052Z,2.88
2023-03-16T01:12:48.581Z,2.87
2023-03-16T01:15:15.061Z,2.91
2023-03-16T01:17:41.637Z,2.88
2023-03-16T01:20:11.978Z,2.85
2023-03-16T01:22:38.789Z,2.88
2023-03-16T01:25:05.659Z,2.90
2023-03-16T01:27:32.824Z,2.98
2023-03-16T01:30:04.376Z,2.99
2023-03-16T01:32:30.814Z,3.02
2023-03-16T01:34:57.382Z,3.01
2023-03-16T01:37:23.757Z,3.04
2023-03-16T01:39:50.274Z,3.08
2023-03-16T01:42:17.027Z,3.08
2023-03-16T01:45:01.978Z,3.11
2023-03-16T01:47:28.341Z,3.12
2023-03-16T01:49:56.633Z,3.15
2023-03-16T01:52:28.707Z,3.19
2023-03-16T01:54:58.825Z,3.22
2023-03-16T01:57:35.220Z,3.19
2023-03-16T02:00:18.889Z,3.18
2023-03-16T02:02:49.517Z,3.25
2023-03-16T02:05:23.044Z,3.16
2023-03-16T02:07:51.821Z,3.22
2023-03-16T02:10:20.381Z,3.19
2023-03-16T02:12:47.253Z,3.18
2023-03-16T02:15:15.196Z,3.23
2023-03-16T02:17:43.701Z,3.25
2023-03-16T02:20:25.366Z,3.28
2023-03-16T02:22:56.225Z,3.28
2023-03-16T02:25:43.981Z,3.28
2023-03-16T02:28:25.049Z,3.22
2023-03-16T02:30:51.654Z,3.23
2023-03-16T02:33:19.968Z,3.25
2023-03-16T02:35:46.376Z,3.23
2023-03-16T02:38:12.855Z,3.25
2023-03-16T02:40:39.359Z,3.23
2023-03-16T02:43:08.717Z,3.19
2023-03-16T02:45:42.619Z,3.23
2023-03-16T02:48:22.214Z,3.16
2023-03-16T02:50:53.047Z,3.19
2023-03-16T02:53:20.122Z,3.15
2023-03-16T02:55:47.242Z,3.19
2023-03-16T02:58:15.421Z,3.22
2023-03-16T03:00:42.437Z,3.20
2023-03-16T03:03:09.466Z,3.20
2023-03-16T03:05:37.252Z,3.19
2023-03-16T03:08:04.333Z,3.25
2023-03-16T03:10:31.065Z,3.20
2023-03-16T03:12:57.705Z,3.23
2023-03-16T03:15:24.689Z,3.22
2023-03-16T03:17:51.409Z,3.23
2023-03-16T03:20:18.251Z,3.22
2023-03-16T03:22:47.545Z,3.23
2023-03-16T03:25:16.043Z,3.22
2023-03-16T03:27:43.473Z,3.19
2023-03-16T03:30:16.436Z,3.18
2023-03-16T03:32:44.083Z,3.25
2023-03-16T03:35:12.550Z,3.20
2023-03-16T03:37:40.659Z,3.19
2023-03-16T03:40:08.394Z,3.13
2023-03-16T03:42:35.169Z,3.20
2023-03-16T03:45:01.695Z,3.20
2023-03-16T03:47:28.106Z,3.23
2023-03-16T03:49:54.497Z,3.19
2023-03-16T03:52:20.854Z,3.19
2023-03-16T03:54:47.228Z,3.16
2023-03-16T03:57:13.814Z,3.22
2023-03-16T03:59:43.709Z,3.16
2023-03-16T04:02:11.114Z,3.22
2023-03-16T04:04:37.850Z,3.25
2023-03-16T04:07:04.370Z,3.22
2023-03-16T04:09:33.992Z,3.28
2023-03-16T04:12:02.053Z,3.26
2023-03-16T04:14:28.937Z,3.26
2023-03-16T04:16:56.513Z,3.30
2023-03-16T04:19:24.182Z,3.26
2023-03-16T04:21:51.383Z,3.28
2023-03-16T04:24:18.261Z,3.26
2023-03-16T04:26:45.102Z,3.20
2023-03-16T04:29:14.279Z,3.18
2023-03-16T04:31:42.305Z,3.25
2023-03-16T04:34:09.554Z,3.25
2023-03-16T04:36:36.024Z,3.22
2023-03-16T04:39:02.994Z,3.26
2023-03-16T04:41:29.363Z,3.25
2023-03-16T04:43:57.559Z,3.29
2023-03-16T04:46:26.389Z,3.26
2023-03-16T04:48:53.801Z,3.28
2023-03-16T04:51:21.499Z,3.29
2023-03-16T04:53:48.128Z,3.33
2023-03-16T04:56:19.468Z,3.30
2023-03-16T04:58:48.315Z,3.35
2023-03-16T05:01:15.941Z,3.38
2023-03-16T05:03:43.655Z,3.42
2023-03-16T05:06:11.965Z,3.38
2023-03-16T05:08:39.448Z,3.39
2023-03-16T05:11:05.860Z,3.43
2023-03-16T05:13:32.434Z,3.49
2023-03-16T05:15:59.174Z,3.43
2023-03-16T05:18:25.925Z,3.43
2023-03-16T05:20:53.737Z,3.48
2023-03-16T05:23:20.704Z,3.48
2023-03-16T05:25:48.227Z,3.49
2023-03-16T05:28:15.011Z,3.46
2023-03-16T05:30:42.489Z,3.49
2023-03-16T05:33:09.430Z,3.52
2023-03-16T05:35:35.964Z,3.53
2023-03-16T05:38:02.751Z,3.55
2023-03-16T05:40:29.727Z,3.62
2023-03-16T05:42:57.605Z,3.63
2023-03-16T05:45:24.633Z,3.59
2023-03-16T05:47:51.761Z,3.57
2023-03-16T05:50:18.246Z,3.62
2023-03-16T05:52:45.759Z,3.62
2023-03-16T05:55:14.555Z,3.62
2023-03-16T05:57:41.486Z,3.60
2023-03-16T06:00:14.569Z,3.63
2023-03-16T06:02:49.140Z,3.63
2023-03-16T06:05:20.462Z,3.74
2023-03-16T06:07:46.878Z,3.71
2023-03-16T06:10:14.385Z,3.70
2023-03-16T06:12:41.321Z,3.71
2023-03-16T06:15:09.282Z,3.70
2023-03-16T06:17:36.652Z,3.74
2023-03-16T06:20:10.040Z,3.78
2023-03-16T06:22:41.184Z,3.83
2023-03-16T06:25:09.808Z,3.81
2023-03-16T06:27:38.088Z,3.80
2023-03-16T06:30:07.047Z,3.88
2023-03-16T06:32:33.500Z,3.98
2023-03-16T06:35:02.174Z,3.97
2023-03-16T06:37:29.378Z,4.05
2023-03-16T06:39:56.128Z,4.09
2023-03-16T06:42:23.758Z,4.09
2023-03-16T06:44:50.245Z,4.18
2023-03-16T06:47:16.786Z,4.15
2023-03-16T06:49:46.940Z,4.21
2023-03-16T06:52:14.393Z,4.25
2023-03-16T06:54:41.713Z,4.34
2023-03-16T06:57:08.468Z,4.36
2023-03-16T06:59:35.334Z,4.35
2023-03-16T07:02:01.933Z,4.38
2023-03-16T07:04:28.507Z,4.46
2023-03-16T07:06:55.249Z,4.48
2023-03-16T07:09:21.982Z,4.52
2023-03-16T07:11:48.610Z,4.60
2023-03-16T07:14:15.292Z,4.57
2023-03-16T07:16:41.775Z,4.63
2023-03-16T07:19:08.196Z,4.60
2023-03-16T07:21:39.859Z,4.72
2023-03-16T07:24:07.764Z,4.80
2023-03-16T07:26:34.324Z,4.79
2023-03-16T07:32:41.674Z,4.86
2023-03-16T07:35:10.059Z,4.86
2023-03-16T07:37:36.987Z,4.88
2023-03-16T07:40:06.898Z,4.86
2023-03-16T07:42:35.418Z,4.90
2023-03-16T07:45:03.222Z,5.00
2023-03-16T07:47:30.503Z,5.01
2023-03-16T07:49:57.569Z,5.04
2023-03-16T07:52:24.181Z,5.04
2023-03-16T07:54:51.231Z,5.24
2023-03-16T07:57:17.686Z,5.31
2023-03-16T07:59:44.300Z,5.37
2023-03-16T08:02:16.699Z,5.30
2023-03-16T08:04:43.752Z,5.39
2023-03-16T08:07:12.056Z,5.48
2023-03-16T08:09:38.544Z,5.35
2023-03-16T08:12:05.892Z,5.37
2023-03-16T08:14:34.432Z,5.45
2023-03-16T08:17:01.743Z,5.46
2023-03-16T08:19:28.554Z,5.63
2023-03-16T08:22:01.572Z,5.62
2023-03-16T08:24:29.473Z,5.67
2023-03-16T08:26:57.418Z,5.75
2023-03-16T08:29:25.143Z,5.87
2023-03-16T08:31:56.241Z,5.89
2023-03-16T08:34:23.950Z,5.86
2023-03-16T08:36:50.461Z,6.02
2023-03-16T08:39:16.901Z,6.06
2023-03-16T08:41:45.841Z,6.21
2023-03-16T08:44:12.990Z,6.17
2023-03-16T08:46:40.671Z,6.13
2023-03-16T08:49:07.238Z,6.27
2023-03-16T08:51:33.667Z,6.24
2023-03-16T08:54:00.120Z,6.38
2023-03-16T08:56:26.554Z,6.37
2023-03-16T08:58:53.024Z,6.24
2023-03-16T09:01:20.352Z,6.34
2023-03-16T09:03:47.389Z,6.30
2023-03-16T09:06:16.017Z,6.31
2023-03-16T09:08:45.329Z,6.42
2023-03-16T09:11:17.344Z,6.37
2023-03-16T09:13:44.641Z,6.37
2023-03-16T09:16:13.778Z,6.48
2023-03-16T09:18:40.584Z,6.44
2023-03-16T09:21:10.291Z,6.68
2023-03-16T09:23:41.732Z,6.72
2023-03-16T09:26:09.450Z,6.72
2023-03-16T09:28:38.627Z,6.99
2023-03-16T09:31:07.051Z,7.23
2023-03-16T09:33:34.326Z,7.57
2023-03-16T09:36:01.642Z,8.19
2023-03-16T09:38:28.230Z,8.21
2023-03-16T09:41:07.132Z,7.85
2023-03-16T09:43:51.685Z,8.25
2023-03-16T09:46:54.660Z,8.49
2023-03-16T09:49:25.964Z,8.26
2023-03-16T09:52:37.345Z,8.02
2023-03-16T09:55:16.632Z,8.22
2023-03-16T09:57:45.069Z,8.19
2023-03-16T10:00:22.149Z,8.07
2023-03-16T10:02:48.462Z,8.23
2023-03-16T10:05:20.537Z,8.42
2023-03-16T10:08:05.886Z,8.32
2023-03-16T10:11:00.626Z,8.33
2023-03-16T10:13:48.117Z,8.56
2023-03-16T10:16:19.925Z,8.29
2023-03-16T10:18:50.228Z,8.26
2023-03-16T10:21:19.525Z,8.21
2023-03-16T10:23:49.316Z,8.09
2023-03-16T10:26:21.162Z,8.19
2023-03-16T10:28:48.043Z,8.21
2023-03-16T10:31:16.827Z,8.47
2023-03-16T10:33:43.743Z,8.37
2023-03-16T10:36:13.780Z,8.26
2023-03-16T10:38:50.727Z,8.52
2023-03-16T10:41:20.453Z,8.60
2023-03-16T10:43:56.084Z,8.56
2023-03-16T10:46:24.954Z,8.53
2023-03-16T10:48:59.965Z,8.74
2023-03-16T10:51:30.934Z,8.85
2023-03-16T10:54:15.592Z,8.94
2023-03-16T10:56:42.396Z,8.91
2023-03-16T10:59:32.061Z,9.36
2023-03-16T11:02:00.188Z,9.54
2023-03-16T11:04:32.089Z,9.60
2023-03-16T11:07:02.283Z,9.94
2023-03-16T11:09:33.926Z,9.62
2023-03-16T11:12:14.053Z,10.07
2023-03-16T11:14:44.907Z,10.07
2023-03-16T11:17:38.543Z,10.01
2023-03-16T11:20:14.834Z,9.83
2023-03-16T11:22:43.133Z,10.07
2023-03-16T11:25:18.303Z,10.32
2023-03-16T11:28:29.868Z,10.44
2023-03-16T11:30:59.149Z,11.01
2023-03-16T11:33:27.124Z,11.08
2023-03-16T11:36:12.488Z,11.28
2023-03-16T11:39:07.708Z,11.93
2023-03-16T11:41:55.624Z,11.35
2023-03-16T11:44:37.568Z,10.93
2023-03-16T11:47:41.693Z,11.27
2023-03-16T11:50:26.121Z,11.08
2023-03-16T11:53:07.065Z,11.79
2023-03-16T11:55:49.809Z,11.63
2023-03-16T11:58:28.220Z,11.24
2023-03-16T12:01:12.433Z,11.52
2023-03-16T12:03:55.437Z,11.61
2023-03-16T12:06:51.097Z,11.93
2023-03-16T12:09:39.320Z,11.47
2023-03-16T12:12:28.463Z,11.90
2023-03-16T12:15:32.631Z,12.37
2023-03-16T12:18:26.446Z,12.91
2023-03-16T12:21:01.591Z,12.75
2023-03-16T12:23:40.492Z,11.95
2023-03-16T12:26:08.811Z,11.90
2023-03-16T12:28:37.034Z,12.06
2023-03-16T12:31:09.374Z,11.68
2023-03-16T12:34:01.810Z,11.74
2023-03-16T12:36:46.985Z,11.59
2023-03-16T12:39:24.907Z,11.69
2023-03-16T12:42:06.855Z,11.75
2023-03-16T12:44:46.589Z,11.66
2023-03-16T12:47:28.744Z,11.49
2023-03-16T12:50:03.050Z,11.54
2023-03-16T12:52:40.162Z,11.68
2023-03-16T12:55:17.665Z,11.63
2023-03-16T12:57:46.156Z,11.41
2023-03-16T13:00:16.904Z,11.26
2023-03-16T13:02:59.767Z,11.47
2023-03-16T13:05:35.083Z,11.44
2023-03-16T13:08:17.859Z,11.72
2023-03-16T13:11:20.521Z,11.93
2023-03-16T13:14:01.950Z,11.82
2023-03-16T13:16:36.500Z,11.85
2023-03-16T13:19:27.172Z,11.95
2023-03-16T13:22:04.131Z,12.00
2023-03-16T13:24:42.562Z,12.02
2023-03-16T13:27:30.879Z,12.13
2023-03-16T13:29:59.999Z,12.58
2023-03-16T13:32:32.307Z,12.65
2023-03-16T13:35:02.147Z,12.75
2023-03-16T13:37:29.899Z,12.72
2023-03-16T13:40:04.497Z,12.68
2023-03-16T13:42:33.571Z,12.78
2023-03-16T13:45:13.063Z,13.20
2023-03-16T13:47:44.033Z,14.02
2023-03-16T13:50:13.702Z,13.50
2023-03-16T13:52:43.107Z,13.73
2023-03-16T13:55:24.290Z,13.84
2023-03-16T13:57:50.848Z,13.46
2023-03-16T14:00:27.293Z,13.30
2023-03-16T14:02:56.974Z,13.54
2023-03-16T14:05:27.674Z,13.58
2023-03-16T14:07:55.574Z,13.43
2023-03-16T14:10:32.242Z,13.36
2023-03-16T14:13:09.284Z,13.40
2023-03-16T14:15:38.505Z,13.36
2023-03-16T14:18:21.280Z,13.15
2023-03-16T14:20:52.939Z,13.22
2023-03-16T14:23:34.354Z,13.26
2023-03-16T14:26:04.403Z,13.25
2023-03-16T14:28:33.277Z,13.33
2023-03-16T14:31:07.247Z,13.03
2023-03-16T14:33:37.664Z,12.81
2023-03-16T14:36:15.968Z,13.05
2023-03-16T14:38:44.584Z,13.03
2023-03-16T14:41:20.900Z,13.19
2023-03-16T14:43:57.645Z,13.06
2023-03-16T14:46:29.982Z,13.32
2023-03-16T14:49:22.036Z,13.29
2023-03-16T14:51:52.729Z,13.53
2023-03-16T14:54:22.286Z,13.56
2023-03-16T14:56:51.998Z,13.57
2023-03-16T14:59:19.024Z,13.63
2023-03-16T15:01:46.546Z,13.27
2023-03-16T15:04:15.995Z,13.22
2023-03-16T15:06:42.762Z,12.96
2023-03-16T15:09:30.263Z,12.96
2023-03-16T15:11:58.004Z,13.18
2023-03-16T15:14:43.143Z,13.09
2023-03-16T15:17:10.897Z,13.68
2023-03-16T15:19:37.635Z,13.51
2023-03-16T15:22:04.876Z,13.25
2023-03-16T15:24:33.262Z,13.00
2023-03-16T15:27:00.662Z,13.22
2023-03-16T15:29:27.110Z,13.53
2023-03-16T15:31:54.661Z,13.51
2023-03-16T15:34:22.413Z,13.39
2023-03-16T15:36:49.129Z,13.39
2023-03-16T15:39:23.696Z,13.20
2023-03-16T15:41:50.546Z,13.16
2023-03-16T15:44:17.085Z,12.85
2023-03-16T15:46:43.584Z,12.69
2023-03-16T15:49:10.037Z,12.79
2023-03-16T15:51:36.646Z,12.78
2023-03-16T15:54:06.831Z,12.69
2023-03-16T15:56:50.901Z,12.81
2023-03-16T15:59:20.832Z,12.76
2023-03-16T16:01:48.388Z,12.67
2023-03-16T16:04:19.488Z,12.58
2023-03-16T16:06:47.533Z,12.41
2023-03-16T16:09:14.406Z,12.40
2023-03-16T16:11:41.599Z,12.46
2023-03-16T16:14:22.372Z,12.33
2023-03-16T16:16:48.880Z,12.26
2023-03-16T16:19:16.650Z,12.16
2023-03-16T16:21:43.852Z,12.13
2023-03-16T16:24:10.897Z,12.16
2023-03-16T16:26:53.253Z,12.09
2023-03-16T16:29:24.437Z,12.00
2023-03-16T16:31:52.024Z,11.90
2023-03-16T16:34:21.790Z,11.89
2023-03-16T16:36:49.025Z,11.85
2023-03-16T16:39:15.582Z,11.74
2023-03-16T16:41:42.984Z,11.69
2023-03-16T16:44:25.663Z,11.68
2023-03-16T16:46:52.622Z,11.65
2023-03-16T16:49:23.744Z,11.61
2023-03-16T16:51:51.436Z,11.59
2023-03-16T16:54:23.271Z,11.63
2023-03-16T16:56:52.750Z,11.66
2023-03-16T16:59:22.879Z,11.59
2023-03-16T17:01:59.217Z,11.59
2023-03-16T17:04:28.114Z,11.51
2023-03-16T17:06:58.909Z,11.49
2023-03-16T17:09:27.218Z,11.42
2023-03-16T17:11:58.665Z,11.37
2023-03-16T17:14:28.079Z,11.37
2023-03-16T17:16:55.343Z,11.35
2023-03-16T17:19:27.981Z,11.31
2023-03-16T17:21:57.195Z,11.24
2023-03-16T17:24:24.419Z,11.28
2023-03-16T17:26:58.690Z,11.20
2023-03-16T17:29:29.835Z,11.16
2023-03-16T17:31:57.298Z,11.11
2023-03-16T17:34:26.423Z,11.06
2023-03-16T17:36:53.644Z,11.03
2023-03-16T17:39:28.776Z,11.04
2023-03-16T17:42:08.868Z,10.93
2023-03-16T17:44:44.853Z,11.00
2023-03-16T17:47:23.802Z,10.94
2023-03-16T17:49:51.379Z,10.94
2023-03-16T17:52:20.797Z,10.90
2023-03-16T17:54:48.397Z,10.80
2023-03-16T17:57:22.127Z,10.80
2023-03-16T17:59:48.867Z,10.76
2023-03-16T18:02:56.477Z,10.76
2023-03-16T18:05:34.481Z,10.77
2023-03-16T18:08:07.625Z,10.76
2023-03-16T18:10:34.109Z,10.65
2023-03-16T18:13:08.962Z,10.63
2023-03-16T18:15:36.523Z,10.69
2023-03-16T18:18:07.204Z,10.55
2023-03-16T18:20:36.452Z,10.55
2023-03-16T18:23:18.619Z,10.53
2023-03-16T18:25:45.964Z,10.45
2023-03-16T18:28:13.953Z,10.41
2023-03-16T18:30:43.586Z,10.38
2023-03-16T18:33:20.556Z,10.38
2023-03-16T18:35:48.184Z,10.37
2023-03-16T18:38:24.109Z,10.35
2023-03-16T18:40:50.700Z,10.28
2023-03-16T18:43:17.343Z,10.26
2023-03-16T18:45:45.947Z,10.28
2023-03-16T18:48:31.630Z,10.29
2023-03-16T18:50:58.719Z,10.22
2023-03-16T18:53:27.770Z,10.21
2023-03-16T18:57:36.890Z,10.18
2023-03-16T19:00:04.002Z,10.15
2023-03-16T19:02:31.602Z,10.14
2023-03-16T19:05:01.210Z,10.12
2023-03-16T19:07:34.902Z,10.08
2023-03-16T19:10:05.222Z,10.04
2023-03-16T19:12:31.666Z,10.02
2023-03-16T19:14:58.046Z,10.05
2023-03-16T19:17:24.482Z,10.04
2023-03-16T19:19:51.082Z,9.97
2023-03-16T19:22:21.220Z,10.02
2023-03-16T19:24:52.090Z,10.00
2023-03-16T19:27:32.045Z,9.95
2023-03-16T19:29:58.599Z,9.94
2023-03-16T19:32:25.440Z,9.91
2023-03-16T19:34:51.937Z,9.89
2023-03-16T19:37:19.730Z,9.79
2023-03-16T19:39:46.319Z,9.80
2023-03-16T19:42:21.926Z,9.83
2023-03-16T19:44:50.251Z,9.76
2023-03-16T19:47:34.541Z,9.74
2023-03-16T19:50:01.658Z,9.76
2023-03-16T19:52:33.420Z,9.67
2023-03-16T19:54:59.852Z,9.67
2023-03-16T19:57:28.273Z,9.71
2023-03-16T19:59:56.647Z,9.71
2023-03-16T20:02:37.452Z,9.63
2023-03-16T20:05:04.341Z,9.62
2023-03-16T20:07:34.486Z,9.52
2023-03-16T20:10:00.946Z,9.59
2023-03-16T20:12:28.699Z,9.47
2023-03-16T20:14:57.095Z,9.56
2023-03-16T20:17:27.079Z,9.56
2023-03-16T20:19:54.524Z,9.53
2023-03-16T20:22:26.473Z,9.60
2023-03-16T20:24:54.437Z,9.49
2023-03-16T20:27:22.970Z,9.53
2023-03-16T20:29:50.542Z,9.56
2023-03-16T20:32:23.370Z,9.54
2023-03-16T20:34:51.164Z,9.50
2023-03-16T20:37:25.445Z,9.52
2023-03-16T20:39:53.865Z,9.47
2023-03-16T20:42:25.862Z,9.40
2023-03-16T20:44:52.654Z,9.38
2023-03-16T20:47:22.574Z,9.42
2023-03-16T20:49:50.581Z,9.49
2023-03-16T20:52:17.935Z,9.43
2023-03-16T20:54:46.951Z,9.47
2023-03-16T20:57:17.292Z,9.47
2023-03-16T20:59:45.396Z,9.39
2023-03-16T21:02:25.436Z,9.31
2023-03-16T21:04:51.964Z,9.36
2023-03-16T21:07:18.405Z,9.44
2023-03-16T21:09:50.216Z,9.49
2023-03-16T21:12:32.147Z,9.40
2023-03-16T21:14:59.875Z,9.50
2023-03-16T21:17:32.768Z,9.39
2023-03-16T21:20:00.739Z,9.44
2023-03-16T21:22:30.318Z,9.53
2023-03-16T21:24:57.422Z,9.42
2023-03-16T21:27:29.971Z,9.43
2023-03-16T21:29:59.518Z,9.33
2023-03-16T21:32:27.759Z,9.39
2023-03-16T21:34:55.285Z,9.39
2023-03-16T21:37:25.811Z,9.36
2023-03-16T21:39:52.547Z,9.42
2023-03-16T21:42:19.681Z,9.44
2023-03-16T21:44:46.314Z,9.42
2023-03-16T21:47:23.222Z,9.40
2023-03-16T21:49:50.230Z,9.38
2023-03-16T21:52:25.276Z,9.36
2023-03-16T21:54:52.479Z,9.39
2023-03-16T21:57:19.701Z,9.42
2023-03-16T21:59:46.433Z,9.29
2023-03-16T22:02:24.607Z,9.33
2023-03-16T22:04:52.046Z,9.35
2023-03-16T22:07:19.455Z,9.25
2023-03-16T22:09:45.885Z,9.21
2023-03-16T22:12:13.699Z,9.16
2023-03-16T22:14:40.858Z,9.21
2023-03-16T22:17:15.424Z,9.10
2023-03-16T22:19:41.824Z,9.28
2023-03-16T22:22:15.204Z,9.33
2023-03-16T22:24:41.853Z,9.26
2023-03-16T22:27:21.597Z,9.32
2023-03-16T22:29:49.807Z,9.25
2023-03-16T22:32:19.427Z,9.19
2023-03-16T22:34:52.774Z,9.33
2023-03-16T22:37:22.838Z,9.25
2023-03-16T22:39:49.798Z,9.16
2023-03-16T22:42:19.025Z,9.35
2023-03-16T22:44:45.398Z,9.33
2023-03-16T22:47:23.350Z,9.29
2023-03-16T22:49:50.274Z,9.23
2023-03-16T22:52:17.352Z,9.28
2023-03-16T22:54:45.456Z,9.22
2023-03-16T22:57:16.893Z,9.23
2023-03-16T22:59:45.675Z,9.31
2023-03-16T23:02:15.750Z,9.31
2023-03-16T23:04:42.547Z,9.28
2023-03-16T23:07:13.515Z,9.32
2023-03-16T23:09:40.692Z,9.31
2023-03-16T23:12:20.727Z,9.31
2023-03-16T23:14:47.590Z,9.39
2023-03-16T23:17:18.673Z,9.31
2023-03-16T23:19:46.047Z,9.35
2023-03-16T23:22:12.650Z,9.33
2023-03-16T23:24:39.123Z,9.38
2023-03-16T23:27:17.974Z,9.33
2023-03-16T23:29:44.849Z,9.35
2023-03-16T23:32:11.800Z,9.35
2023-03-16T23:34:38.222Z,9.44
2023-03-16T23:37:04.650Z,9.38
2023-03-16T23:39:31.000Z,9.42
2023-03-16T23:41:57.622Z,9.38
2023-03-16T23:44:27.791Z,9.36
2023-03-16T23:46:54.640Z,9.39
2023-03-16T23:49:25.204Z,9.44
2023-03-16T23:51:53.280Z,9.44
2023-03-16T23:54:25.917Z,9.40
2023-03-16T23:56:52.487Z,9.43
2023-03-16T23:59:20.322Z,9.39
